Terminal Aerodrome Forecast
Issued by NWS Mt. Holly, NJ

Home | Current Version | Previous Version | Text Only | Print | Product List | Glossary On
Versions: 1 2 3 4 5 6 7 8 9 10 11 12 13 14 15 16 17 18 19 20 21 22 23 24 25 26
748
FTUS41 KPHI 191144
TAFTTN
TAF
KTTN 191144Z 1912/2012 29005KT P6SM SCT030 BKN040
      TEMPO 1913/1915 BKN030
     FM191600 32007KT P6SM FEW030
     FM200000 35004KT P6SM SCT250
     FM200600 03003KT P6SM BKN025=

USA.gov is the U.S. government's official web portal to all federal, state and local government web resources and services.